Time;durP1;ratioP1;P1;durP2;ratioP2;P2;SDS_P1;SDS_P2;PMS_P1;PMS_P2;Temp;Humidity;BMP_temperature;BMP_pressure;BME280_temperature;BME280_humidity;BME280_pressure;Samples;Min_cycle;Max_cycle;Signal;HPM_P1;HPM_P2
2022/11/04 00:01:31;;;;;;;0.40;0.40;;;;;;;;;;6185341;23;20195;-84
2022/11/04 00:03:59;;;;;;;0.43;0.43;;;;;;;;;;6159946;23;20202;-84
2022/11/04 00:06:29;;;;;;;0.40;0.40;;;;;;;;;;6160034;23;20186;-84
2022/11/04 00:08:59;;;;;;;0.50;0.50;;;;;;;;;;6159957;23;20175;-84
2022/11/04 00:14:14;;;;;;;0.50;0.50;;;;;;;;;;6160069;23;20186;-84
2022/11/04 00:28:41;;;;;;;0.50;0.50;;;;;;;;;;6160069;23;20206;-84
2022/11/04 00:30:37;;;;;;;0.40;0.40;;;;;;;;;;6159796;23;20174;-83
2022/11/04 00:35:51;;;;;;;0.50;0.50;;;;;;;;;;6140686;23;20566;-84
2022/11/04 00:38:21;;;;;;;0.43;0.43;;;;;;;;;;6159639;23;20186;-84
2022/11/04 00:40:50;;;;;;;0.40;0.40;;;;;;;;;;6185810;23;20213;-83
2022/11/04 00:43:18;;;;;;;0.40;0.40;;;;;;;;;;6160047;23;20183;-84
2022/11/04 00:45:47;;;;;;;0.40;0.40;;;;;;;;;;6184901;23;20183;-84
2022/11/04 00:48:15;;;;;;;0.40;0.40;;;;;;;;;;6159533;23;20175;-84
2022/11/04 00:50:43;;;;;;;0.47;0.47;;;;;;;;;;6185919;23;20170;-84
2022/11/04 00:53:12;;;;;;;0.40;0.40;;;;;;;;;;6159525;23;20199;-84
2022/11/04 00:55:41;;;;;;;0.40;0.40;;;;;;;;;;6184674;23;20175;-84
2022/11/04 00:58:10;;;;;;;0.40;0.40;;;;;;;;;;6159469;23;20198;-84
2022/11/04 01:00:39;;;;;;;0.50;0.50;;;;;;;;;;6159607;23;20179;-84
2022/11/04 01:03:07;;;;;;;0.40;0.40;;;;;;;;;;6185527;23;20265;-84
2022/11/04 01:05:38;;;;;;;0.40;0.40;;;;;;;;;;6159243;23;20264;-85
2022/11/04 01:08:06;;;;;;;0.40;0.40;;;;;;;;;;6184102;23;20199;-87
2022/11/04 01:10:43;;;;;;;0.40;0.40;;;;;;;;;;6159494;23;20206;-84
2022/11/04 01:13:13;;;;;;;0.40;0.40;;;;;;;;;;6158993;23;20217;-84
2022/11/04 01:15:41;;;;;;;0.40;0.40;;;;;;;;;;6159590;23;20171;-84
2022/11/04 01:18:09;;;;;;;0.40;0.40;;;;;;;;;;6185423;23;20206;-84
2022/11/04 01:20:38;;;;;;;0.40;0.40;;;;;;;;;;6160032;23;20186;-84
2022/11/04 01:23:06;;;;;;;0.40;0.40;;;;;;;;;;6184245;23;20258;-84
2022/11/04 01:25:35;;;;;;;0.40;0.40;;;;;;;;;;6183852;23;20177;-84
2022/11/04 01:28:03;;;;;;;0.50;0.50;;;;;;;;;;6159543;23;20199;-84
2022/11/04 01:30:38;;;;;;;0.40;0.40;;;;;;;;;;6159293;23;20182;-84
2022/11/04 01:33:06;;;;;;;0.50;0.50;;;;;;;;;;6159459;23;20178;-85
2022/11/04 01:35:35;;;;;;;0.40;0.40;;;;;;;;;;6184010;23;20179;-84
2022/11/04 01:38:03;;;;;;;0.50;0.50;;;;;;;;;;6159826;23;20253;-85
2022/11/04 01:40:36;;;;;;;0.40;0.40;;;;;;;;;;6185769;23;20182;-84
2022/11/04 01:43:04;;;;;;;0.40;0.40;;;;;;;;;;6185397;23;20232;-84
2022/11/04 01:45:33;;;;;;;0.40;0.40;;;;;;;;;;6184481;23;20182;-85
2022/11/04 01:48:05;;;;;;;0.40;0.40;;;;;;;;;;6159761;23;20181;-84
2022/11/04 01:50:34;;;;;;;0.40;0.40;;;;;;;;;;6159497;23;20195;-85
2022/11/04 01:53:05;;;;;;;0.40;0.40;;;;;;;;;;6158414;23;20174;-85
2022/11/04 01:55:35;;;;;;;0.40;0.40;;;;;;;;;;6159390;23;20202;-85
2022/11/04 01:58:06;;;;;;;0.40;0.40;;;;;;;;;;6185121;23;20174;-84
2022/11/04 02:00:34;;;;;;;0.40;0.40;;;;;;;;;;6159724;23;20185;-85
2022/11/04 02:03:06;;;;;;;0.50;0.50;;;;;;;;;;6184091;23;20199;-85
2022/11/04 02:05:35;;;;;;;0.50;0.50;;;;;;;;;;6185401;23;20435;-85
2022/11/04 02:08:05;;;;;;;0.50;0.50;;;;;;;;;;6159113;23;20272;-85
2022/11/04 02:10:33;;;;;;;0.50;0.50;;;;;;;;;;6185579;23;20205;-85
2022/11/04 02:13:02;;;;;;;0.50;0.50;;;;;;;;;;6159298;23;20208;-85
2022/11/04 02:15:34;;;;;;;0.50;0.50;;;;;;;;;;6159083;23;20178;-84
2022/11/04 02:18:12;;;;;;;0.50;0.50;;;;;;;;;;6158848;23;20175;-85
2022/11/04 02:21:00;;;;;;;0.50;0.50;;;;;;;;;;6159063;23;20181;-85
2022/11/04 02:23:51;;;;;;;0.50;0.50;;;;;;;;;;6160898;23;20181;-85
2022/11/04 02:26:40;;;;;;;0.50;0.50;;;;;;;;;;6187052;23;20173;-86
2022/11/04 02:29:25;;;;;;;0.50;0.50;;;;;;;;;;6160900;23;20203;-86
2022/11/04 02:31:57;;;;;;;0.50;0.50;;;;;;;;;;6186054;23;20181;-87
2022/11/04 02:34:32;;;;;;;0.50;0.50;;;;;;;;;;6161188;23;20214;-88
2022/11/04 02:37:07;;;;;;;0.50;0.50;;;;;;;;;;6186840;23;20188;-86
2022/11/04 02:39:38;;;;;;;0.50;0.50;;;;;;;;;;6186782;23;20227;-86
2022/11/04 02:42:12;;;;;;;0.50;0.50;;;;;;;;;;6186943;23;20176;-87
2022/11/04 02:44:45;;;;;;;0.60;0.60;;;;;;;;;;6186975;23;20177;-87
2022/11/04 02:47:15;;;;;;;0.50;0.50;;;;;;;;;;6161313;23;20176;-87
2022/11/04 02:49:46;;;;;;;0.50;0.50;;;;;;;;;;6185733;23;20223;-87
2022/11/04 02:52:17;;;;;;;0.50;0.50;;;;;;;;;;6186740;23;20181;-87
2022/11/04 02:54:48;;;;;;;0.50;0.50;;;;;;;;;;6185935;23;20177;-87
2022/11/04 02:57:18;;;;;;;0.50;0.50;;;;;;;;;;6160434;23;20172;-87
2022/11/04 02:59:50;;;;;;;0.50;0.50;;;;;;;;;;6160552;23;20247;-87
2022/11/04 03:02:20;;;;;;;0.50;0.50;;;;;;;;;;6160462;23;20176;-86
2022/11/04 03:04:51;;;;;;;0.50;0.50;;;;;;;;;;6160465;23;20212;-87
2022/11/04 03:07:23;;;;;;;0.50;0.50;;;;;;;;;;6185365;23;20243;-87
2022/11/04 03:09:54;;;;;;;0.50;0.50;;;;;;;;;;6160840;23;20184;-87
2022/11/04 03:12:25;;;;;;;0.50;0.50;;;;;;;;;;6160760;23;20185;-88
2022/11/04 03:15:00;;;;;;;0.50;0.50;;;;;;;;;;6185375;23;20180;-88
2022/11/04 03:17:32;;;;;;;0.50;0.50;;;;;;;;;;6160599;23;20213;-87
2022/11/04 03:20:01;;;;;;;0.50;0.50;;;;;;;;;;6160446;23;20197;-87
2022/11/04 03:22:30;;;;;;;0.50;0.50;;;;;;;;;;6160407;23;20230;-86
2022/11/04 03:24:59;;;;;;;0.50;0.50;;;;;;;;;;6187130;23;20226;-86
2022/11/04 03:27:30;;;;;;;0.50;0.50;;;;;;;;;;6160526;23;20231;-86
2022/11/04 03:30:00;;;;;;;0.50;0.50;;;;;;;;;;6160649;23;20169;-86
2022/11/04 03:32:33;;;;;;;0.50;0.50;;;;;;;;;;6185218;23;20181;-86
2022/11/04 03:35:01;;;;;;;0.50;0.50;;;;;;;;;;6185590;23;20181;-88
2022/11/04 03:37:30;;;;;;;0.50;0.50;;;;;;;;;;6160409;23;20173;-87
2022/11/04 03:39:58;;;;;;;0.50;0.50;;;;;;;;;;6161000;23;20198;-87
2022/11/04 03:42:27;;;;;;;0.50;0.50;;;;;;;;;;6185699;23;20171;-87
2022/11/04 03:44:57;;;;;;;0.50;0.50;;;;;;;;;;6186530;23;20226;-86
2022/11/04 03:47:27;;;;;;;0.50;0.50;;;;;;;;;;6186345;23;20168;-87
2022/11/04 03:49:58;;;;;;;0.50;0.50;;;;;;;;;;6160548;23;20205;-88
2022/11/04 03:52:27;;;;;;;0.50;0.50;;;;;;;;;;6160765;23;20185;-88
2022/11/04 03:54:55;;;;;;;0.50;0.50;;;;;;;;;;6160738;23;20229;-88
2022/11/04 03:57:40;;;;;;;0.50;0.50;;;;;;;;;;6160515;23;20182;-88
2022/11/04 04:00:10;;;;;;;0.50;0.50;;;;;;;;;;6185576;23;20194;-88
2022/11/04 04:02:51;;;;;;;0.50;0.50;;;;;;;;;;6160532;23;20178;-88
2022/11/04 04:05:22;;;;;;;0.50;0.50;;;;;;;;;;6160496;23;20182;-86
2022/11/04 04:07:52;;;;;;;0.50;0.50;;;;;;;;;;6184706;23;20219;-86
2022/11/04 04:10:41;;;;;;;0.50;0.50;;;;;;;;;;6186561;23;20191;-86
2022/11/04 04:13:17;;;;;;;0.50;0.50;;;;;;;;;;6160445;23;20188;-86
2022/11/04 04:15:48;;;;;;;0.50;0.50;;;;;;;;;;6186182;23;20173;-88
2022/11/04 04:18:20;;;;;;;0.60;0.60;;;;;;;;;;6185394;23;20231;-87
2022/11/04 04:20:50;;;;;;;0.50;0.50;;;;;;;;;;6185074;23;20201;-87
2022/11/04 04:28:56;;;;;;;0.53;0.53;;;;;;;;;;6159696;23;20184;-87
2022/11/04 04:34:13;;;;;;;0.50;0.50;;;;;;;;;;6160262;23;20264;-86
2022/11/04 04:36:44;;;;;;;0.50;0.50;;;;;;;;;;6159864;23;20177;-87
2022/11/04 04:45:02;;;;;;;0.50;0.50;;;;;;;;;;6096636;23;20231;-87
2022/11/04 04:47:33;;;;;;;0.50;0.50;;;;;;;;;;6160552;23;20181;-87
2022/11/04 04:50:03;;;;;;;0.50;0.50;;;;;;;;;;6186183;23;20179;-87
2022/11/04 04:52:34;;;;;;;0.50;0.50;;;;;;;;;;6159615;23;20173;-84
2022/11/04 04:55:02;;;;;;;0.50;0.50;;;;;;;;;;6159611;23;20173;-85
2022/11/04 04:57:31;;;;;;;0.50;0.50;;;;;;;;;;6159242;23;20210;-85
2022/11/04 05:00:07;;;;;;;0.40;0.40;;;;;;;;;;6185789;23;20188;-85
2022/11/04 05:02:40;;;;;;;0.50;0.50;;;;;;;;;;6159816;23;20176;-85
2022/11/04 05:05:29;;;;;;;0.50;0.50;;;;;;;;;;6159286;23;20223;-85
2022/11/04 05:08:06;;;;;;;0.50;0.50;;;;;;;;;;6159172;23;20205;-84
2022/11/04 05:10:35;;;;;;;0.50;0.50;;;;;;;;;;6159580;23;20176;-85
2022/11/04 05:15:49;;;;;;;0.50;0.50;;;;;;;;;;6159676;23;20181;-84
2022/11/04 05:18:18;;;;;;;0.50;0.50;;;;;;;;;;6184331;23;20178;-84
2022/11/04 05:23:40;;;;;;;0.50;0.50;;;;;;;;;;6157638;23;20173;-84
2022/11/04 05:26:14;;;;;;;0.50;0.50;;;;;;;;;;6159154;23;20181;-84
2022/11/04 05:28:52;;;;;;;0.50;0.50;;;;;;;;;;6159199;23;20182;-83
2022/11/04 05:31:23;;;;;;;0.50;0.50;;;;;;;;;;6159329;23;20199;-84
2022/11/04 05:33:58;;;;;;;0.50;0.50;;;;;;;;;;6159350;23;20210;-83
2022/11/04 05:36:27;;;;;;;0.50;0.50;;;;;;;;;;6159407;23;20173;-83
2022/11/04 05:38:57;;;;;;;0.50;0.50;;;;;;;;;;6159354;23;20174;-85
2022/11/04 05:44:31;;;;;;;0.60;0.60;;;;;;;;;;6150354;23;20184;-85
2022/11/04 05:47:06;;;;;;;0.50;0.50;;;;;;;;;;6159266;23;20173;-84
2022/11/04 05:49:40;;;;;;;0.50;0.50;;;;;;;;;;6159157;23;20181;-85
2022/11/04 05:54:54;;;;;;;0.50;0.50;;;;;;;;;;6157617;23;20225;-85
2022/11/04 05:57:31;;;;;;;0.50;0.50;;;;;;;;;;6160087;23;20187;-83
2022/11/04 05:59:59;;;;;;;0.50;0.50;;;;;;;;;;6160566;23;20178;-84
2022/11/04 06:02:28;;;;;;;0.50;0.50;;;;;;;;;;6187008;23;20173;-83
2022/11/04 06:04:56;;;;;;;0.50;0.50;;;;;;;;;;6186118;23;20192;-84
2022/11/04 06:07:25;;;;;;;0.50;0.50;;;;;;;;;;6155869;23;20217;-83
2022/11/04 06:09:55;;;;;;;0.57;0.57;;;;;;;;;;6180929;23;20180;-83
2022/11/04 06:12:23;;;;;;;0.50;0.50;;;;;;;;;;6155836;23;20183;-83
2022/11/04 06:14:51;;;;;;;0.50;0.50;;;;;;;;;;6155944;23;20185;-84
2022/11/04 06:17:21;;;;;;;0.50;0.50;;;;;;;;;;6156283;23;20205;-85
2022/11/04 06:19:49;;;;;;;0.60;0.60;;;;;;;;;;6155484;23;20179;-85
2022/11/04 06:22:19;;;;;;;0.50;0.50;;;;;;;;;;6155350;23;20256;-85
2022/11/04 06:24:47;;;;;;;0.50;0.50;;;;;;;;;;6155744;23;20180;-86
2022/11/04 06:27:17;;;;;;;0.50;0.50;;;;;;;;;;6156978;23;20178;-85
2022/11/04 06:29:46;;;;;;;0.50;0.50;;;;;;;;;;6180186;23;20182;-86
2022/11/04 06:32:15;;;;;;;0.50;0.50;;;;;;;;;;6155851;23;20179;-85
2022/11/04 06:34:44;;;;;;;0.50;0.50;;;;;;;;;;6180285;23;20233;-86
2022/11/04 06:37:12;;;;;;;0.50;0.50;;;;;;;;;;6157397;23;20179;-86
2022/11/04 06:39:41;;;;;;;0.50;0.50;;;;;;;;;;6156965;23;20262;-88
2022/11/04 06:42:10;;;;;;;0.50;0.50;;;;;;;;;;6155317;23;20196;-89
2022/11/04 06:44:40;;;;;;;0.50;0.50;;;;;;;;;;6155725;23;20186;-88
2022/11/04 06:47:08;;;;;;;0.50;0.50;;;;;;;;;;6155627;23;20227;-88
2022/11/04 06:49:36;;;;;;;0.50;0.50;;;;;;;;;;6155527;23;20175;-88
2022/11/04 06:52:05;;;;;;;0.50;0.50;;;;;;;;;;6180769;23;20170;-89
2022/11/04 06:54:34;;;;;;;0.50;0.50;;;;;;;;;;6155461;23;20178;-89
2022/11/04 06:57:03;;;;;;;0.50;0.50;;;;;;;;;;6155443;23;20231;-86
2022/11/04 06:59:31;;;;;;;0.50;0.50;;;;;;;;;;6180489;23;20183;-86
2022/11/04 07:02:01;;;;;;;0.50;0.50;;;;;;;;;;6156698;23;20188;-86
2022/11/04 07:04:30;;;;;;;0.50;0.50;;;;;;;;;;6180180;23;20198;-86
2022/11/04 07:06:58;;;;;;;0.50;0.50;;;;;;;;;;6183476;23;20203;-86
2022/11/04 07:09:26;;;;;;;0.50;0.50;;;;;;;;;;6160328;23;20178;-86
2022/11/04 07:11:55;;;;;;;0.50;0.50;;;;;;;;;;6186559;23;20209;-86
2022/11/04 07:14:23;;;;;;;0.50;0.50;;;;;;;;;;6186350;23;20206;-86
2022/11/04 07:16:52;;;;;;;0.50;0.50;;;;;;;;;;6185065;23;20177;-85
2022/11/04 07:19:22;;;;;;;0.50;0.50;;;;;;;;;;6186305;23;20272;-86
2022/11/04 07:21:50;;;;;;;0.50;0.50;;;;;;;;;;6186717;23;20187;-86
2022/11/04 07:24:18;;;;;;;0.40;0.40;;;;;;;;;;6185570;23;20178;-86
2022/11/04 07:26:47;;;;;;;0.50;0.50;;;;;;;;;;6159941;23;20171;-86
2022/11/04 07:29:15;;;;;;;0.50;0.50;;;;;;;;;;6159978;23;20209;-86
2022/11/04 07:31:44;;;;;;;0.50;0.50;;;;;;;;;;6160046;23;20182;-85
2022/11/04 07:34:12;;;;;;;0.50;0.50;;;;;;;;;;6159858;23;20182;-85
2022/11/04 07:36:47;;;;;;;0.50;0.50;;;;;;;;;;6184842;23;20185;-85
2022/11/04 07:39:15;;;;;;;0.50;0.50;;;;;;;;;;6159859;23;20210;-85
2022/11/04 07:41:44;;;;;;;0.50;0.50;;;;;;;;;;6159426;23;20205;-85
2022/11/04 07:44:13;;;;;;;0.53;0.53;;;;;;;;;;6184667;23;20189;-85
2022/11/04 07:46:41;;;;;;;0.50;0.50;;;;;;;;;;6159887;23;20187;-85
2022/11/04 07:49:10;;;;;;;0.50;0.50;;;;;;;;;;6185032;23;20175;-84
2022/11/04 07:51:42;;;;;;;0.50;0.50;;;;;;;;;;6159364;23;20185;-85
2022/11/04 07:54:12;;;;;;;0.50;0.50;;;;;;;;;;6184924;23;20210;-85
2022/11/04 07:56:41;;;;;;;0.50;0.50;;;;;;;;;;6186289;23;20180;-86
2022/11/04 07:59:12;;;;;;;0.50;0.50;;;;;;;;;;6185032;23;20181;-85
2022/11/04 08:01:46;;;;;;;0.50;0.50;;;;;;;;;;6159478;23;20226;-83
2022/11/04 08:04:15;;;;;;;0.50;0.50;;;;;;;;;;6182819;23;20198;-84
2022/11/04 08:06:44;;;;;;;0.50;0.50;;;;;;;;;;6158657;23;20182;-84
2022/11/04 08:09:14;;;;;;;0.50;0.50;;;;;;;;;;6159011;23;20265;-84
2022/11/04 08:11:43;;;;;;;0.50;0.50;;;;;;;;;;6151523;23;20178;-84
2022/11/04 08:14:11;;;;;;;0.50;0.50;;;;;;;;;;6156782;23;20182;-85
2022/11/04 08:16:40;;;;;;;0.50;0.50;;;;;;;;;;6179115;23;20232;-85
2022/11/04 08:19:11;;;;;;;0.50;0.50;;;;;;;;;;6158573;23;20175;-88
2022/11/04 08:21:40;;;;;;;0.50;0.50;;;;;;;;;;6158934;23;20198;-85
2022/11/04 08:24:08;;;;;;;0.50;0.50;;;;;;;;;;6156977;23;20179;-86
2022/11/04 08:26:41;;;;;;;0.50;0.50;;;;;;;;;;6158691;23;20202;-87
2022/11/04 08:29:17;;;;;;;0.50;0.50;;;;;;;;;;6182347;23;20171;-86
2022/11/04 08:31:50;;;;;;;0.50;0.50;;;;;;;;;;6181228;23;20245;-84
2022/11/04 08:34:20;;;;;;;0.50;0.50;;;;;;;;;;6183708;23;20179;-87
2022/11/04 08:36:51;;;;;;;0.50;0.50;;;;;;;;;;6158636;23;20189;-85
2022/11/04 08:39:20;;;;;;;0.50;0.50;;;;;;;;;;6183811;23;20183;-87
2022/11/04 08:41:53;;;;;;;0.50;0.50;;;;;;;;;;6152858;23;20199;-84
2022/11/04 08:44:23;;;;;;;0.50;0.50;;;;;;;;;;6151921;23;20186;-84
2022/11/04 08:47:03;;;;;;;6.00;5.70;;;;;;;;;;6149995;23;20182;-84
2022/11/04 08:49:33;;;;;;;0.50;0.50;;;;;;;;;;6153531;23;20265;-83
2022/11/04 08:52:02;;;;;;;0.50;0.50;;;;;;;;;;6179589;23;20178;-83
2022/11/04 08:54:53;;;;;;;0.43;0.43;;;;;;;;;;6152369;23;20175;-85
2022/11/04 09:00:52;;;;;;;0.40;0.40;;;;;;;;;;6153132;23;20183;-83
2022/11/04 09:06:18;;;;;;;0.40;0.40;;;;;;;;;;6152507;23;20222;-82
2022/11/04 09:09:03;;;;;;;0.40;0.40;;;;;;;;;;6147905;23;20274;-81
2022/11/04 09:11:55;;;;;;;0.50;0.50;;;;;;;;;;6148955;23;20210;-82
2022/11/04 09:14:45;;;;;;;0.40;0.40;;;;;;;;;;6148226;23;20164;-81
2022/11/04 09:17:20;;;;;;;0.40;0.40;;;;;;;;;;6173080;23;20234;-81
2022/11/04 09:20:06;;;;;;;0.40;0.40;;;;;;;;;;6147432;23;20198;-81
2022/11/04 09:22:44;;;;;;;0.40;0.40;;;;;;;;;;6149809;23;20199;-82
2022/11/04 09:25:36;;;;;;;0.40;0.40;;;;;;;;;;6176012;23;20224;-82
2022/11/04 09:28:19;;;;;;;0.40;0.40;;;;;;;;;;6150447;23;20179;-83
2022/11/04 09:31:13;;;;;;;0.40;0.40;;;;;;;;;;6150342;23;20185;-81
2022/11/04 09:33:48;;;;;;;0.40;0.40;;;;;;;;;;6150113;23;20179;-82
2022/11/04 09:36:22;;;;;;;0.40;0.40;;;;;;;;;;6151664;23;20183;-82
2022/11/04 09:39:02;;;;;;;0.40;0.40;;;;;;;;;;6175481;23;20453;-81
2022/11/04 09:42:32;;;;;;;;;;;;;;;;;;;;;
2022/11/04 09:50:16;;;;;;;;;;;;;;;;;;;;;
2022/11/04 09:53:16;;;;;;;0.30;0.30;;;;;;;;;;5870629;24;20181;-83
2022/11/04 10:03:16;;;;;;;0.40;0.40;;;;;;;;;;6007664;23;20204;-85
2022/11/04 10:06:21;;;;;;;0.40;0.40;;;;;;;;;;6033694;23;20184;-86
2022/11/04 10:09:28;;;;;;;0.40;0.40;;;;;;;;;;6066566;23;20218;-85
2022/11/04 10:15:51;;;;;;;0.40;0.40;;;;;;;;;;6075067;23;20228;-85
2022/11/04 10:18:48;;;;;;;0.30;0.30;;;;;;;;;;6146518;23;20180;-84
2022/11/04 11:17:31;;;;;;;0.40;0.40;;;;;;;;;;5968971;23;20183;-90
2022/11/04 11:20:07;;;;;;;0.40;0.40;;;;;;;;;;5995685;23;20178;-92
2022/11/04 11:23:08;;;;;;;0.40;0.40;;;;;;;;;;6008886;23;20202;-90
2022/11/04 11:25:43;;;;;;;0.40;0.40;;;;;;;;;;6033470;23;20190;-87
2022/11/04 11:28:22;;;;;;;0.40;0.40;;;;;;;;;;6057220;23;20184;-88
2022/11/04 11:31:00;;;;;;;0.50;0.50;;;;;;;;;;6067279;23;20209;-89
2022/11/04 11:33:32;;;;;;;0.50;0.50;;;;;;;;;;6067724;23;20188;-87
2022/11/04 11:36:11;;;;;;;0.40;0.40;;;;;;;;;;6067108;23;20177;-88
2022/11/04 11:38:52;;;;;;;0.40;0.40;;;;;;;;;;6092370;23;20176;-89
2022/11/04 11:41:30;;;;;;;0.40;0.40;;;;;;;;;;6068073;23;20181;-89
2022/11/04 11:44:07;;;;;;;0.50;0.50;;;;;;;;;;6066975;23;20201;-89
2022/11/04 11:46:40;;;;;;;0.50;0.50;;;;;;;;;;6091465;23;20177;-87
2022/11/04 11:49:23;;;;;;;0.50;0.50;;;;;;;;;;6068241;23;20177;-87
2022/11/04 11:52:18;;;;;;;0.50;0.50;;;;;;;;;;6091601;23;20180;-86
2022/11/04 11:54:52;;;;;;;0.40;0.40;;;;;;;;;;6067500;23;20184;-84
2022/11/04 11:57:27;;;;;;;0.50;0.50;;;;;;;;;;6066361;23;20177;-87
2022/11/04 12:00:05;;;;;;;0.40;0.40;;;;;;;;;;6068122;23;20181;-88
2022/11/04 12:03:00;;;;;;;0.40;0.40;;;;;;;;;;6067234;23;20201;-87
2022/11/04 12:05:33;;;;;;;0.50;0.50;;;;;;;;;;6091497;23;20176;-88
2022/11/04 12:08:32;;;;;;;0.50;0.50;;;;;;;;;;6067265;23;20209;-87
2022/11/04 12:11:28;;;;;;;0.40;0.40;;;;;;;;;;6067124;23;20196;-87
2022/11/04 12:13:57;;;;;;;0.50;0.50;;;;;;;;;;6067429;23;20264;-87
2022/11/04 12:16:31;;;;;;;0.43;0.43;;;;;;;;;;6067355;23;20271;-86
2022/11/04 12:19:04;;;;;;;0.50;0.50;;;;;;;;;;6067151;23;20181;-87
2022/11/04 12:21:37;;;;;;;0.50;0.50;;;;;;;;;;6093557;23;20272;-87
2022/11/04 12:24:18;;;;;;;0.40;0.40;;;;;;;;;;6067531;23;20203;-86
2022/11/04 12:26:55;;;;;;;0.40;0.40;;;;;;;;;;6069718;23;20188;-86
2022/11/04 12:29:36;;;;;;;0.40;0.40;;;;;;;;;;6067757;23;20204;-86
2022/11/04 12:32:09;;;;;;;0.40;0.40;;;;;;;;;;6066812;23;20212;-87
2022/11/04 12:34:50;;;;;;;0.40;0.40;;;;;;;;;;6066776;23;20186;-87
2022/11/04 12:37:24;;;;;;;0.40;0.40;;;;;;;;;;6091983;23;20181;-84
2022/11/04 12:40:04;;;;;;;0.40;0.40;;;;;;;;;;6091468;23;20245;-85
2022/11/04 12:42:38;;;;;;;0.40;0.40;;;;;;;;;;6069086;23;20187;-86
2022/11/04 12:45:16;;;;;;;0.30;0.30;;;;;;;;;;6069447;23;20200;-85
2022/11/04 12:47:48;;;;;;;0.40;0.40;;;;;;;;;;6093323;23;20218;-85
2022/11/04 12:50:41;;;;;;;0.40;0.40;;;;;;;;;;6068182;23;20217;-85
2022/11/04 12:53:18;;;;;;;0.40;0.40;;;;;;;;;;6091456;23;20181;-85
2022/11/04 12:55:54;;;;;;;0.40;0.40;;;;;;;;;;6068436;23;20272;-85
2022/11/04 12:58:34;;;;;;;0.40;0.40;;;;;;;;;;6067401;23;20224;-83
2022/11/04 13:01:09;;;;;;;0.40;0.40;;;;;;;;;;6067054;23;20181;-83
2022/11/04 13:03:47;;;;;;;0.40;0.40;;;;;;;;;;6068391;23;20197;-84
2022/11/04 13:06:18;;;;;;;0.40;0.40;;;;;;;;;;6068732;23;20248;-84
2022/11/04 13:08:50;;;;;;;0.40;0.40;;;;;;;;;;6068629;23;20221;-84
2022/11/04 13:11:24;;;;;;;0.40;0.40;;;;;;;;;;6069417;23;20185;-84
2022/11/04 13:13:59;;;;;;;0.40;0.40;;;;;;;;;;6069773;23;20184;-84
2022/11/04 13:16:34;;;;;;;0.40;0.40;;;;;;;;;;6070003;23;20259;-83
2022/11/04 13:19:09;;;;;;;0.40;0.40;;;;;;;;;;6070740;23;20177;-83
2022/11/04 13:21:39;;;;;;;0.40;0.40;;;;;;;;;;6070581;23;20181;-83
2022/11/04 13:24:15;;;;;;;0.40;0.40;;;;;;;;;;6094598;23;20323;-83
2022/11/04 13:26:45;;;;;;;0.40;0.40;;;;;;;;;;6070831;23;20267;-83
2022/11/04 13:29:20;;;;;;;0.40;0.40;;;;;;;;;;6070195;23;20183;-84
2022/11/04 13:31:55;;;;;;;0.40;0.40;;;;;;;;;;6070336;23;20184;-81
2022/11/04 13:34:31;;;;;;;0.40;0.40;;;;;;;;;;6070905;23;20255;-81
2022/11/04 13:37:05;;;;;;;0.40;0.40;;;;;;;;;;6094083;23;20186;-82
2022/11/04 13:39:36;;;;;;;0.40;0.40;;;;;;;;;;6070552;23;20276;-82
2022/11/04 13:42:22;;;;;;;0.40;0.40;;;;;;;;;;6070718;23;20202;-80
2022/11/04 13:44:55;;;;;;;0.30;0.30;;;;;;;;;;6070144;23;20217;-82
2022/11/04 13:47:25;;;;;;;0.30;0.30;;;;;;;;;;6094888;23;20215;-82
2022/11/04 13:49:55;;;;;;;0.40;0.40;;;;;;;;;;6070494;23;20264;-82
2022/11/04 13:52:24;;;;;;;0.40;0.40;;;;;;;;;;6070301;23;20243;-82
2022/11/04 13:54:57;;;;;;;0.30;0.30;;;;;;;;;;6070404;23;20174;-84
2022/11/04 13:57:27;;;;;;;0.30;0.30;;;;;;;;;;6070203;23;20229;-84
2022/11/04 14:00:19;;;;;;;0.30;0.30;;;;;;;;;;6070347;23;20182;-84
2022/11/04 14:02:48;;;;;;;0.37;0.37;;;;;;;;;;6070302;23;20277;-84
2022/11/04 14:05:38;;;;;;;0.30;0.30;;;;;;;;;;6070561;23;20195;-84
2022/11/04 14:08:10;;;;;;;0.30;0.30;;;;;;;;;;6070553;23;20213;-84
2022/11/04 14:10:43;;;;;;;0.40;0.40;;;;;;;;;;6070575;23;20190;-83
2022/11/04 14:13:32;;;;;;;0.30;0.30;;;;;;;;;;6070563;23;20177;-84
2022/11/04 14:16:03;;;;;;;0.40;0.40;;;;;;;;;;6070467;23;20174;-84
2022/11/04 14:18:33;;;;;;;0.37;0.37;;;;;;;;;;6071415;23;20260;-84
2022/11/04 14:21:04;;;;;;;0.40;0.40;;;;;;;;;;6071938;23;20178;-84
2022/11/04 14:23:33;;;;;;;0.40;0.40;;;;;;;;;;6096439;23;20174;-83
2022/11/04 14:26:03;;;;;;;0.40;0.40;;;;;;;;;;6096368;23;20224;-84
2022/11/04 14:28:33;;;;;;;0.30;0.30;;;;;;;;;;6071733;23;20181;-83
2022/11/04 14:31:05;;;;;;;0.40;0.40;;;;;;;;;;6072204;23;20177;-83
2022/11/04 14:33:35;;;;;;;0.40;0.40;;;;;;;;;;6071486;23;20272;-83
2022/11/04 14:36:31;;;;;;;0.40;0.40;;;;;;;;;;6139613;23;20172;-83
2022/11/04 14:39:02;;;;;;;0.40;0.40;;;;;;;;;;6089245;23;20234;-84
2022/11/04 14:41:37;;;;;;;0.40;0.40;;;;;;;;;;6181007;23;20207;-85
2022/11/04 14:44:08;;;;;;;0.40;0.40;;;;;;;;;;6157010;23;20175;-85
2022/11/04 14:49:44;;;;;;;0.40;0.40;;;;;;;;;;6154847;23;20176;-85
2022/11/04 14:52:24;;;;;;;0.30;0.30;;;;;;;;;;6155922;23;20176;-85
2022/11/04 14:55:09;;;;;;;0.40;0.40;;;;;;;;;;6155610;23;20180;-85
2022/11/04 14:57:43;;;;;;;0.30;0.30;;;;;;;;;;6157158;23;20179;-86
2022/11/04 15:00:27;;;;;;;0.40;0.40;;;;;;;;;;6155541;23;20175;-85
2022/11/04 15:03:23;;;;;;;0.33;0.33;;;;;;;;;;6156345;23;20179;-85
2022/11/04 15:06:12;;;;;;;0.40;0.40;;;;;;;;;;6179743;23;20227;-85
2022/11/04 15:09:09;;;;;;;0.40;0.40;;;;;;;;;;6158231;23;20211;-85
2022/11/04 15:14:37;;;;;;;0.40;0.40;;;;;;;;;;6160121;23;20225;-88
2022/11/04 15:17:39;;;;;;;0.40;0.40;;;;;;;;;;6159787;23;20179;-87
2022/11/04 15:20:23;;;;;;;0.77;0.77;;;;;;;;;;6158584;23;20264;-87
2022/11/04 15:22:56;;;;;;;2.83;1.10;;;;;;;;;;6159398;23;20178;-86
2022/11/04 15:29:03;;;;;;;0.57;0.57;;;;;;;;;;6044662;23;20182;-85
2022/11/04 15:31:34;;;;;;;0.50;0.50;;;;;;;;;;6041105;23;20185;-84
2022/11/04 15:34:05;;;;;;;1.27;1.20;;;;;;;;;;6041426;23;20184;-84
2022/11/04 15:36:44;;;;;;;0.40;0.40;;;;;;;;;;6041204;23;20265;-84
2022/11/04 15:39:21;;;;;;;0.87;0.87;;;;;;;;;;6040208;23;20213;-85
2022/11/04 15:44:38;;;;;;;2.10;0.83;;;;;;;;;;6039478;23;20192;-84
2022/11/04 15:47:24;;;;;;;0.40;0.40;;;;;;;;;;6039850;23;20188;-85
2022/11/04 15:49:54;;;;;;;2.20;1.33;;;;;;;;;;6039315;23;20264;-85
2022/11/04 15:52:26;;;;;;;7.67;4.67;;;;;;;;;;6039801;23;20184;-85
2022/11/04 15:54:58;;;;;;;1.17;1.10;;;;;;;;;;6039647;23;20178;-85
2022/11/04 15:57:29;;;;;;;14.23;1.23;;;;;;;;;;6039979;23;20181;-83
2022/11/04 16:00:02;;;;;;;0.43;0.43;;;;;;;;;;6111431;23;20179;-85
2022/11/04 16:02:49;;;;;;;1.47;1.27;;;;;;;;;;6156926;23;20198;-83
2022/11/04 16:05:29;;;;;;;1.50;1.00;;;;;;;;;;6156294;23;20202;-83
2022/11/04 16:08:22;;;;;;;0.60;0.60;;;;;;;;;;6157225;23;20179;-86
2022/11/04 16:11:16;;;;;;;1.70;1.33;;;;;;;;;;6156362;23;20201;-86
2022/11/04 16:14:25;;;;;;;1.70;1.33;;;;;;;;;;6180980;23;20167;-87
2022/11/04 16:17:18;;;;;;;0.90;0.90;;;;;;;;;;6157057;23;20175;-87
2022/11/04 16:19:55;;;;;;;0.50;0.50;;;;;;;;;;6156398;23;20178;-84
2022/11/04 16:22:28;;;;;;;1.50;0.90;;;;;;;;;;6183970;23;20199;-86
2022/11/04 16:25:10;;;;;;;0.80;0.80;;;;;;;;;;6157887;23;20286;-84
2022/11/04 16:27:39;;;;;;;0.57;0.57;;;;;;;;;;6159030;23;20252;-82
2022/11/04 16:30:09;;;;;;;0.73;0.73;;;;;;;;;;6183318;23;20257;-85
2022/11/04 16:32:42;;;;;;;0.70;0.70;;;;;;;;;;6159076;23;20186;-85
2022/11/04 16:35:29;;;;;;;1.50;0.83;;;;;;;;;;6158297;23;20257;-83
2022/11/04 16:38:25;;;;;;;0.87;0.70;;;;;;;;;;6156401;23;20247;-86
2022/11/04 16:40:55;;;;;;;1.33;1.33;;;;;;;;;;6182853;23;20233;-87
2022/11/04 16:43:24;;;;;;;0.60;0.60;;;;;;;;;;6158722;23;20176;-87
2022/11/04 16:45:59;;;;;;;0.50;0.50;;;;;;;;;;6157821;23;20281;-87
2022/11/04 16:48:28;;;;;;;0.67;0.67;;;;;;;;;;6158221;23;20182;-87
2022/11/04 16:50:56;;;;;;;0.83;0.83;;;;;;;;;;6184603;23;20257;-87
2022/11/04 16:53:25;;;;;;;1.27;1.27;;;;;;;;;;6184940;23;20179;-87
2022/11/04 16:55:56;;;;;;;0.50;0.50;;;;;;;;;;6159787;23;20175;-87
2022/11/04 16:58:25;;;;;;;0.40;0.40;;;;;;;;;;6184711;23;20175;-87
2022/11/04 17:00:53;;;;;;;0.50;0.50;;;;;;;;;;6159792;23;20183;-87
2022/11/04 17:03:22;;;;;;;0.50;0.50;;;;;;;;;;6185740;23;20222;-87
2022/11/04 17:05:50;;;;;;;0.50;0.50;;;;;;;;;;6159349;23;20199;-87
2022/11/04 17:08:19;;;;;;;0.50;0.50;;;;;;;;;;6184545;23;20199;-86
2022/11/04 17:10:47;;;;;;;0.60;0.60;;;;;;;;;;6159507;23;20186;-87
2022/11/04 17:13:17;;;;;;;0.50;0.50;;;;;;;;;;6159677;23;20185;-87
2022/11/04 17:15:46;;;;;;;0.50;0.50;;;;;;;;;;6184493;23;20178;-87
2022/11/04 17:18:16;;;;;;;0.50;0.50;;;;;;;;;;6185557;23;20179;-87
2022/11/04 17:20:45;;;;;;;1.03;1.03;;;;;;;;;;6159468;23;20179;-87
2022/11/04 17:23:15;;;;;;;0.43;0.43;;;;;;;;;;6159646;23;20179;-85
2022/11/04 17:25:51;;;;;;;0.50;0.50;;;;;;;;;;6159680;23;20281;-87
2022/11/04 17:28:21;;;;;;;0.60;0.60;;;;;;;;;;6159799;23;20179;-86
2022/11/04 17:30:53;;;;;;;1.23;1.23;;;;;;;;;;6184328;23;20175;-86
2022/11/04 17:33:31;;;;;;;0.50;0.50;;;;;;;;;;6159335;23;20175;-85
2022/11/04 17:36:00;;;;;;;0.60;0.60;;;;;;;;;;6159047;23;20171;-86
2022/11/04 17:38:35;;;;;;;0.50;0.50;;;;;;;;;;6158970;23;20185;-85
2022/11/04 17:44:03;;;;;;;1.03;1.03;;;;;;;;;;6159229;23;20190;-88